createdAt,value
2017-11-10T00:00:17.691Z,89.75
2017-11-10T00:02:45.264Z,85.03
2017-11-10T00:05:12.837Z,86.35
2017-11-10T00:07:40.452Z,89.13
2017-11-10T00:10:08.084Z,74.70
2017-11-10T00:12:35.719Z,82.18
2017-11-10T00:15:03.334Z,85.07
2017-11-10T00:17:30.961Z,83.47
2017-11-10T00:19:58.576Z,86.53
2017-11-10T00:22:27.007Z,91.70
2017-11-10T00:24:54.671Z,80.40
2017-11-10T00:27:22.283Z,88.78
2017-11-10T00:29:49.861Z,82.97
2017-11-10T00:32:17.519Z,84.32
2017-11-10T00:34:45.204Z,81.12
2017-11-10T00:37:12.820Z,80.18
2017-11-10T00:39:41.200Z,75.47
2017-11-10T00:42:08.863Z,82.30
2017-11-10T00:44:36.482Z,78.05
2017-11-10T00:47:04.054Z,75.20
2017-11-10T00:49:31.685Z,74.43
2017-11-10T00:51:59.351Z,74.30
2017-11-10T00:54:26.963Z,78.35
2017-11-10T00:56:54.581Z,77.90
2017-11-10T00:59:22.182Z,79.68
2017-11-10T01:01:49.757Z,71.60
2017-11-10T01:04:17.330Z,64.93
2017-11-10T01:06:44.990Z,73.95
2017-11-10T01:09:12.643Z,71.15
2017-11-10T01:11:41.006Z,76.12
2017-11-10T01:14:09.387Z,66.57
2017-11-10T01:16:37.007Z,65.75
2017-11-10T01:19:04.669Z,66.20
2017-11-10T01:21:32.241Z,71.28
2017-11-10T01:23:59.904Z,65.30
2017-11-10T01:26:28.289Z,68.75
2017-11-10T01:28:55.904Z,66.60
2017-11-10T01:31:23.524Z,67.80
2017-11-10T01:33:51.133Z,71.07
2017-11-10T01:36:18.732Z,62.03
2017-11-10T01:38:46.321Z,63.63
2017-11-10T01:41:13.966Z,56.78
2017-11-10T01:43:41.546Z,56.13
2017-11-10T01:46:09.968Z,56.42
2017-11-10T01:48:42.618Z,54.85
2017-11-10T01:51:10.258Z,57.15
2017-11-10T01:53:38.659Z,58.42
2017-11-10T01:56:06.224Z,56.10
2017-11-10T01:58:33.918Z,55.95
2017-11-10T02:01:01.604Z,56.67
2017-11-10T02:03:29.225Z,52.58
2017-11-10T02:05:56.859Z,50.53
2017-11-10T02:08:25.213Z,49.60
2017-11-10T02:10:52.796Z,47.50
2017-11-10T02:13:20.413Z,53.10
2017-11-10T02:15:48.054Z,49.72
2017-11-10T02:18:15.648Z,43.55
2017-11-10T02:20:43.322Z,48.95
2017-11-10T02:23:10.958Z,43.97
2017-11-10T02:25:38.622Z,45.83
2017-11-10T02:28:06.292Z,41.80
2017-11-10T02:30:33.959Z,49.63
2017-11-10T02:33:01.590Z,47.05
2017-11-10T02:35:29.227Z,50.15
2017-11-10T02:37:56.886Z,47.53
2017-11-10T02:40:24.563Z,53.58
2017-11-10T02:42:52.209Z,44.60
2017-11-10T02:45:19.829Z,46.67
2017-11-10T02:47:47.459Z,45.88
2017-11-10T02:50:15.078Z,49.17
2017-11-10T02:52:42.710Z,46.45
2017-11-10T02:55:10.358Z,43.30
2017-11-10T02:57:37.988Z,43.08
2017-11-10T03:00:05.636Z,42.30
2017-11-10T03:02:33.256Z,41.00
2017-11-10T03:05:00.878Z,38.53
2017-11-10T03:07:28.520Z,41.67
2017-11-10T03:09:56.203Z,35.55
2017-11-10T03:12:23.870Z,40.67
2017-11-10T03:14:51.566Z,45.88
2017-11-10T03:17:19.174Z,44.10
2017-11-10T03:19:47.549Z,42.53
2017-11-10T03:22:15.925Z,41.75
2017-11-10T03:24:44.308Z,39.92
2017-11-10T03:27:12.659Z,44.08
2017-11-10T03:29:40.302Z,30.90
2017-11-10T03:32:07.932Z,36.85
2017-11-10T03:34:35.500Z,43.28
2017-11-10T03:37:03.150Z,32.78
2017-11-10T03:39:30.774Z,37.30
2017-11-10T03:41:58.410Z,36.90
2017-11-10T03:44:26.044Z,40.45
2017-11-10T03:46:53.674Z,31.65
2017-11-10T03:49:22.088Z,35.92
2017-11-10T03:51:49.722Z,34.05
2017-11-10T03:54:17.380Z,33.92
2017-11-10T03:56:45.780Z,37.78
2017-11-10T03:59:14.010Z,38.13
2017-11-10T04:01:42.221Z,37.35
2017-11-10T04:04:10.366Z,35.40
2017-11-10T04:06:38.704Z,36.10
2017-11-10T04:09:06.877Z,39.33
2017-11-10T04:11:35.197Z,36.95
2017-11-10T04:14:03.684Z,35.03
2017-11-10T04:16:31.985Z,34.95
2017-11-10T04:19:01.049Z,37.65
2017-11-10T04:21:29.318Z,35.25
2017-11-10T04:23:57.562Z,39.78
2017-11-10T04:26:25.763Z,45.40
2017-11-10T04:28:54.202Z,35.88
2017-11-10T04:31:22.568Z,34.58
2017-11-10T04:33:51.532Z,39.13
2017-11-10T04:36:19.865Z,35.83
2017-11-10T04:38:48.186Z,35.63
2017-11-10T04:41:17.383Z,31.92
2017-11-10T04:43:45.720Z,36.35
2017-11-10T04:46:13.981Z,39.63
2017-11-10T04:48:42.415Z,38.97
2017-11-10T04:51:10.756Z,35.63
2017-11-10T04:53:38.928Z,41.25
2017-11-10T04:56:07.798Z,35.78
2017-11-10T04:58:36.027Z,34.17
2017-11-10T05:01:04.411Z,34.67
2017-11-10T05:03:32.723Z,32.80
2017-11-10T05:06:00.902Z,34.85
2017-11-10T05:08:29.174Z,33.30
2017-11-10T05:10:57.375Z,32.80
2017-11-10T05:13:25.867Z,33.92
2017-11-10T05:15:55.610Z,36.40
2017-11-10T05:18:23.990Z,32.13
2017-11-10T05:20:52.277Z,31.45
2017-11-10T05:23:20.480Z,32.75
2017-11-10T05:25:48.720Z,35.38
2017-11-10T05:28:17.054Z,30.00
2017-11-10T05:30:45.585Z,32.92
2017-11-10T05:33:13.875Z,33.38
2017-11-10T05:35:42.125Z,37.05
2017-11-10T05:38:10.912Z,35.28
2017-11-10T05:40:39.234Z,38.67
2017-11-10T05:43:07.509Z,33.38
2017-11-10T05:45:35.958Z,36.72
2017-11-10T05:48:04.331Z,34.60
2017-11-10T05:50:32.568Z,39.45
2017-11-10T05:53:02.015Z,32.20
2017-11-10T05:55:30.282Z,33.20
2017-11-10T05:57:58.447Z,38.30
2017-11-10T06:00:27.406Z,32.35
2017-11-10T06:02:55.828Z,28.17
2017-11-10T06:05:23.968Z,30.00
2017-11-10T06:07:52.195Z,30.95
2017-11-10T06:10:20.398Z,31.92
2017-11-10T06:12:48.749Z,29.33
2017-11-10T06:15:16.870Z,33.05
2017-11-10T06:17:45.080Z,32.45
2017-11-10T06:20:13.422Z,34.13
2017-11-10T06:22:41.624Z,28.70
2017-11-10T06:25:09.808Z,31.25
2017-11-10T06:27:38.015Z,34.35
2017-11-10T06:30:06.371Z,33.40
2017-11-10T06:32:35.363Z,26.58
2017-11-10T06:35:03.496Z,31.27
2017-11-10T06:37:31.769Z,23.87
2017-11-10T06:39:59.918Z,30.48
2017-11-10T06:42:28.118Z,37.58
2017-11-10T06:44:56.280Z,31.40
2017-11-10T06:47:24.450Z,27.95
2017-11-10T06:49:52.775Z,27.95
2017-11-10T06:52:20.918Z,31.77
2017-11-10T06:54:49.239Z,30.60
2017-11-10T06:57:17.473Z,30.70
2017-11-10T06:59:46.566Z,37.30
2017-11-10T07:02:14.779Z,26.67
2017-11-10T07:04:42.958Z,31.20
2017-11-10T07:07:12.281Z,34.65
2017-11-10T07:09:40.388Z,32.80
2017-11-10T07:12:08.614Z,27.25
2017-11-10T07:14:36.804Z,30.95
2017-11-10T07:17:05.113Z,30.95
2017-11-10T07:19:33.336Z,30.83
2017-11-10T07:22:01.613Z,27.92
2017-11-10T07:24:29.728Z,29.85
2017-11-10T07:26:57.950Z,26.70
2017-11-10T07:29:26.103Z,31.60
2017-11-10T07:31:54.269Z,25.27
2017-11-10T07:34:22.409Z,28.08
2017-11-10T07:36:50.611Z,26.65
2017-11-10T07:39:18.777Z,24.52
2017-11-10T07:41:46.927Z,22.92
2017-11-10T07:44:15.003Z,27.17
2017-11-10T07:46:43.153Z,30.98
2017-11-10T07:49:11.261Z,30.80
2017-11-10T07:51:40.169Z,26.62
2017-11-10T07:54:09.161Z,25.65
2017-11-10T07:56:37.172Z,25.80
2017-11-10T07:59:10.737Z,26.12
2017-11-10T08:01:38.983Z,27.90
2017-11-10T08:04:07.133Z,29.00
2017-11-10T08:06:35.293Z,23.10
2017-11-10T08:09:03.470Z,28.90
2017-11-10T08:11:32.775Z,26.45
2017-11-10T08:14:00.938Z,24.45
2017-11-10T08:16:29.135Z,28.08
2017-11-10T08:18:57.354Z,27.05
2017-11-10T08:21:25.571Z,24.67
2017-11-10T08:23:53.702Z,28.48
2017-11-10T08:26:21.831Z,25.88
2017-11-10T08:28:50.231Z,28.98
2017-11-10T08:31:18.412Z,24.80
2017-11-10T08:33:46.635Z,29.73
2017-11-10T08:36:14.820Z,25.37
2017-11-10T08:38:43.735Z,26.05
2017-11-10T08:41:11.881Z,26.80
2017-11-10T08:43:40.124Z,27.08
2017-11-10T08:46:09.530Z,32.00
2017-11-10T08:48:37.699Z,26.65
2017-11-10T08:51:05.874Z,39.72
2017-11-10T08:53:34.636Z,30.58
2017-11-10T08:56:02.680Z,34.35
2017-11-10T08:58:30.847Z,36.22
2017-11-10T09:00:58.977Z,31.65
2017-11-10T09:03:27.153Z,39.42
2017-11-10T09:05:55.261Z,46.28
2017-11-10T09:08:23.529Z,41.92
2017-11-10T09:10:51.653Z,44.40
2017-11-10T09:13:19.851Z,49.80
2017-11-10T09:15:47.827Z,46.97
2017-11-10T09:18:15.871Z,43.85
2017-11-10T09:20:47.527Z,57.10
2017-11-10T09:23:15.582Z,48.80
2017-11-10T09:25:43.588Z,49.60
2017-11-10T09:28:28.966Z,52.72
2017-11-10T09:31:18.130Z,43.83
2017-11-10T09:34:01.060Z,48.08
2017-11-10T09:36:35.923Z,50.95
2017-11-10T09:39:24.693Z,46.78
2017-11-10T09:41:54.831Z,45.03
2017-11-10T09:44:40.539Z,41.50
2017-11-10T09:47:15.069Z,42.13
2017-11-10T09:49:51.484Z,71.00
2017-11-10T09:52:43.745Z,132.87
2017-11-10T09:55:15.232Z,179.02
2017-11-10T09:58:05.111Z,174.32
2017-11-10T10:03:46.880Z,136.50
2017-11-10T10:06:16.944Z,152.15
2017-11-10T10:09:01.731Z,106.20
2017-11-10T10:11:50.363Z,36.95
2017-11-10T10:14:24.199Z,37.30
2017-11-10T10:17:02.583Z,38.28
2017-11-10T10:19:54.132Z,34.95
2017-11-10T10:22:39.456Z,37.72
2017-11-10T10:25:07.658Z,36.88
2017-11-10T10:27:39.516Z,40.72
2017-11-10T10:30:07.872Z,27.52
2017-11-10T10:32:36.245Z,32.03
2017-11-10T10:35:05.235Z,30.88
2017-11-10T10:37:33.623Z,32.05
2017-11-10T10:40:02.002Z,37.67
2017-11-10T10:42:30.354Z,34.72
2017-11-10T10:44:58.439Z,38.28
2017-11-10T10:47:27.722Z,34.15
2017-11-10T10:49:59.363Z,34.67
2017-11-10T10:52:28.639Z,41.88
2017-11-10T10:55:01.236Z,39.42
2017-11-10T10:57:30.028Z,46.55
2017-11-10T10:59:59.362Z,35.78
2017-11-10T11:02:28.803Z,41.17
2017-11-10T11:04:57.449Z,36.47
2017-11-10T11:07:27.196Z,43.70
2017-11-10T11:09:55.477Z,39.75
2017-11-10T11:12:23.923Z,42.88
2017-11-10T11:14:51.952Z,42.97
2017-11-10T11:17:21.121Z,37.60
2017-11-10T11:19:49.303Z,38.80
2017-11-10T11:22:17.539Z,39.60
2017-11-10T11:24:46.609Z,76.43
2017-11-10T11:27:14.743Z,33.70
2017-11-10T11:29:42.815Z,43.40
2017-11-10T11:32:12.044Z,39.38
2017-11-10T11:34:40.166Z,35.67
2017-11-10T11:37:08.860Z,38.08
2017-11-10T11:39:37.632Z,37.25
2017-11-10T11:42:05.810Z,37.20
2017-11-10T11:44:34.310Z,36.95
2017-11-10T12:59:26.687Z,25.88
2017-11-10T13:01:56.087Z,27.15
2017-11-10T13:07:01.417Z,25.83
2017-11-10T13:09:29.617Z,26.85
2017-11-10T13:11:57.808Z,28.75
2017-11-10T13:14:34.847Z,37.00
2017-11-10T13:17:08.507Z,24.40
2017-11-10T13:22:35.682Z,27.60
2017-11-10T13:25:06.663Z,31.70
2017-11-10T13:27:34.907Z,29.98
2017-11-10T13:30:05.007Z,26.55
2017-11-10T13:32:33.610Z,27.83
2017-11-10T13:35:02.775Z,30.05
2017-11-10T13:37:31.611Z,35.33
2017-11-10T13:39:59.800Z,30.52
2017-11-10T13:42:28.691Z,30.92
2017-11-10T13:44:59.195Z,29.12
2017-11-10T13:47:27.701Z,27.10
2017-11-10T13:49:55.978Z,30.75
2017-11-10T13:52:24.356Z,31.17
2017-11-10T13:54:52.532Z,32.63
2017-11-10T13:57:20.812Z,35.22
2017-11-10T13:59:49.137Z,33.55
2017-11-10T14:02:17.260Z,27.23
2017-11-10T14:04:45.431Z,21.27
2017-11-10T14:07:13.606Z,24.02
2017-11-10T14:09:41.677Z,21.42
2017-11-10T14:12:09.819Z,21.02
2017-11-10T14:14:37.925Z,20.30
2017-11-10T14:17:06.243Z,20.90
2017-11-10T14:19:34.433Z,27.27
2017-11-10T14:22:02.589Z,21.48
2017-11-10T14:24:30.775Z,16.65
2017-11-10T14:26:59.139Z,24.52
2017-11-10T14:29:27.663Z,20.37
2017-11-10T14:31:56.790Z,19.20
2017-11-10T14:34:27.110Z,14.10
2017-11-10T14:36:55.524Z,18.42
2017-11-10T14:39:24.100Z,23.00
2017-11-10T14:41:53.545Z,18.92
2017-11-10T14:44:21.953Z,17.27
2017-11-10T14:46:59.551Z,17.73
2017-11-10T14:49:28.212Z,17.52
2017-11-10T14:51:56.306Z,12.65
2017-11-10T14:54:29.379Z,15.98
2017-11-10T14:56:57.917Z,16.30
2017-11-10T14:59:27.386Z,9.95
2017-11-10T15:01:57.788Z,11.80
2017-11-10T15:04:29.291Z,13.50
2017-11-10T15:06:56.901Z,13.80
2017-11-10T15:09:24.525Z,17.75
2017-11-10T15:11:52.163Z,16.65
2017-11-10T15:14:19.795Z,25.55
2017-11-10T15:16:47.581Z,26.37
2017-11-10T15:19:15.204Z,56.05
2017-11-10T15:21:42.790Z,42.72
2017-11-10T15:24:10.414Z,28.77
2017-11-10T15:26:38.055Z,36.67
2017-11-10T15:29:05.682Z,22.70
2017-11-10T15:31:33.260Z,40.22
2017-11-10T15:34:00.887Z,31.50
2017-11-10T15:36:28.518Z,25.75
2017-11-10T15:38:58.394Z,23.38
2017-11-10T15:41:26.100Z,29.87
2017-11-10T15:43:54.603Z,18.17
2017-11-10T15:46:22.331Z,40.08
2017-11-10T15:48:52.652Z,24.92
2017-11-10T15:51:20.272Z,23.27
2017-11-10T15:53:47.939Z,11.90
2017-11-10T15:56:18.021Z,17.65
2017-11-10T15:58:45.790Z,14.45
2017-11-10T16:01:13.656Z,11.30
2017-11-10T16:03:42.732Z,12.35
2017-11-10T16:06:10.400Z,12.60
2017-11-10T16:08:37.979Z,14.70
2017-11-10T16:11:07.692Z,12.63
2017-11-10T16:13:35.316Z,12.02
2017-11-10T16:16:02.984Z,11.35
2017-11-10T16:18:30.667Z,11.73
2017-11-10T16:20:58.288Z,13.60
2017-11-10T16:23:25.876Z,14.57
2017-11-10T16:25:54.279Z,14.75
2017-11-10T16:28:21.891Z,12.07
2017-11-10T16:30:49.503Z,12.40
2017-11-10T16:33:18.576Z,13.20
2017-11-10T16:35:46.198Z,15.25
2017-11-10T16:38:13.817Z,15.35
2017-11-10T16:40:41.428Z,14.02
2017-11-10T16:43:09.219Z,12.73
2017-11-10T16:45:36.800Z,15.23
2017-11-10T16:48:04.439Z,14.05
2017-11-10T16:50:32.787Z,15.93
2017-11-10T16:53:00.401Z,17.10
2017-11-10T16:55:28.064Z,14.27
2017-11-10T16:57:56.322Z,15.65
2017-11-10T17:00:23.999Z,15.13
2017-11-10T17:02:54.304Z,16.25
2017-11-10T17:05:22.020Z,14.38
2017-11-10T17:07:53.330Z,15.95
2017-11-10T17:10:20.961Z,15.95
2017-11-10T17:12:48.672Z,14.02
2017-11-10T17:15:17.260Z,16.10
2017-11-10T17:17:44.903Z,16.80
2017-11-10T17:20:12.896Z,16.73
2017-11-10T17:22:40.603Z,14.05
2017-11-10T17:25:09.527Z,18.37
2017-11-10T17:27:37.287Z,16.48
2017-11-10T17:30:04.900Z,17.75
2017-11-10T17:32:32.476Z,17.30
2017-11-10T17:35:00.306Z,20.70
2017-11-10T17:37:27.978Z,18.75
2017-11-10T17:39:55.613Z,23.67
2017-11-10T17:42:23.238Z,21.73
2017-11-10T17:44:51.655Z,16.55
2017-11-10T17:47:19.447Z,27.90
2017-11-10T17:49:47.091Z,32.08
2017-11-10T17:52:14.992Z,22.70
2017-11-10T17:54:42.618Z,20.80
2017-11-10T17:57:10.197Z,20.00
2017-11-10T17:59:37.823Z,19.55
2017-11-10T18:02:05.446Z,20.45
2017-11-10T18:04:33.159Z,25.58
2017-11-10T18:07:01.045Z,19.55
2017-11-10T18:09:28.657Z,21.20
2017-11-10T18:11:57.041Z,21.45
2017-11-10T18:14:25.523Z,18.05
2017-11-10T18:16:53.211Z,17.58
2017-11-10T18:19:20.852Z,17.90
2017-11-10T18:21:52.706Z,20.48
2017-11-10T18:24:20.335Z,16.10
2017-11-10T18:26:47.979Z,17.40
2017-11-10T18:29:15.740Z,21.05
2017-11-10T18:31:43.453Z,21.17
2017-11-10T18:34:11.844Z,23.27
2017-11-10T18:36:39.483Z,18.90
2017-11-10T18:39:11.321Z,23.98
2017-11-10T18:41:39.116Z,17.33
2017-11-10T18:44:07.468Z,61.15
2017-11-10T18:46:35.224Z,20.60
2017-11-10T18:49:09.004Z,21.30
2017-11-10T18:51:36.639Z,95.97
2017-11-10T18:54:04.353Z,27.98
2017-11-10T18:56:32.027Z,36.30
2017-11-10T18:59:00.321Z,17.35
2017-11-10T19:01:28.713Z,10.93
2017-11-10T19:03:56.329Z,9.95
2017-11-10T19:06:23.933Z,12.98
2017-11-10T19:08:52.306Z,13.52
2017-11-10T19:11:19.927Z,13.25
2017-11-10T19:13:47.540Z,11.23
2017-11-10T19:16:15.232Z,20.00
2017-11-10T19:18:42.895Z,14.20
2017-11-10T19:21:10.521Z,13.30
2017-11-10T19:23:38.903Z,7.87
2017-11-10T19:26:06.513Z,9.68
2017-11-10T19:28:34.125Z,9.45
2017-11-10T19:31:01.801Z,9.10
2017-11-10T19:33:29.415Z,6.45
2017-11-10T19:35:57.056Z,10.10
2017-11-10T19:38:24.757Z,8.05
2017-11-10T19:40:52.363Z,6.80
2017-11-10T19:43:19.971Z,8.20
2017-11-10T19:45:47.579Z,9.88
2017-11-10T19:48:15.185Z,7.80
2017-11-10T19:50:42.971Z,9.45
2017-11-10T19:53:10.577Z,7.60
2017-11-10T19:55:38.229Z,6.82
2017-11-10T19:58:05.832Z,9.82
2017-11-10T20:00:33.439Z,7.82
2017-11-10T20:03:01.137Z,9.13
2017-11-10T20:05:28.955Z,3.80
2017-11-10T20:07:56.615Z,5.57
2017-11-10T20:10:25.378Z,3.65
2017-11-10T20:12:52.984Z,3.67
2017-11-10T20:15:20.660Z,2.87
2017-11-10T20:17:48.318Z,3.22
2017-11-10T20:20:15.924Z,2.03
2017-11-10T20:22:43.551Z,2.25
2017-11-10T20:25:11.193Z,3.78
2017-11-10T20:27:38.875Z,1.73
2017-11-10T20:30:06.566Z,5.25
2017-11-10T20:32:34.174Z,1.90
2017-11-10T20:35:01.786Z,2.70
2017-11-10T20:37:29.417Z,5.32
2017-11-10T20:39:57.056Z,2.12
2017-11-10T20:42:26.643Z,4.68
2017-11-10T20:44:55.033Z,2.90
2017-11-10T20:47:25.580Z,7.93
2017-11-10T20:49:53.196Z,2.20
2017-11-10T20:52:20.943Z,2.22
2017-11-10T20:54:49.782Z,7.03
2017-11-10T20:57:18.254Z,2.97
2017-11-10T20:59:45.871Z,3.87
2017-11-10T21:02:13.479Z,3.70
2017-11-10T21:04:41.104Z,3.58
2017-11-10T21:07:10.734Z,6.70
2017-11-10T21:09:38.298Z,5.22
2017-11-10T21:12:05.904Z,6.28
2017-11-10T21:14:33.483Z,2.33
2017-11-10T21:17:01.095Z,7.12
2017-11-10T21:19:28.748Z,5.25
2017-11-10T21:22:02.652Z,4.22
2017-11-10T21:24:30.269Z,2.00
2017-11-10T21:26:57.883Z,11.20
2017-11-10T21:29:25.500Z,7.53
2017-11-10T21:31:53.304Z,3.42
2017-11-10T21:34:21.723Z,5.43
2017-11-10T21:36:49.296Z,5.97
2017-11-10T21:39:16.908Z,6.50
2017-11-10T21:41:45.287Z,2.10
2017-11-10T21:44:13.631Z,8.65
2017-11-10T21:46:41.248Z,3.05
2017-11-10T21:49:19.495Z,11.48
2017-11-10T21:51:47.075Z,5.53
2017-11-10T21:54:14.852Z,7.00
2017-11-10T21:56:43.252Z,6.30
2017-11-10T21:59:10.913Z,4.70
2017-11-10T22:01:38.515Z,5.18
2017-11-10T22:04:06.247Z,5.20
2017-11-10T22:06:33.863Z,3.90
2017-11-10T22:09:01.479Z,3.67
2017-11-10T22:11:29.400Z,11.00
2017-11-10T22:13:57.124Z,8.45
2017-11-10T22:16:24.811Z,5.50
2017-11-10T22:18:52.404Z,6.12
2017-11-10T22:21:20.043Z,9.82
2017-11-10T22:23:47.755Z,11.38
2017-11-10T22:26:15.431Z,4.18
2017-11-10T22:28:43.170Z,10.88
2017-11-10T22:31:10.775Z,5.70
2017-11-10T22:33:38.640Z,3.20
2017-11-10T22:36:06.263Z,14.43
2017-11-10T22:38:33.962Z,9.18
2017-11-10T22:41:01.669Z,9.90
2017-11-10T22:43:30.015Z,7.80
2017-11-10T22:45:57.628Z,6.43
2017-11-10T22:48:25.337Z,12.65
2017-11-10T22:50:53.259Z,6.00
2017-11-10T22:53:20.916Z,5.57
2017-11-10T22:55:49.467Z,12.88
2017-11-10T22:58:17.116Z,13.38
2017-11-10T23:00:44.691Z,8.13
2017-11-10T23:03:12.324Z,12.52
2017-11-10T23:05:39.947Z,12.35
2017-11-10T23:08:07.676Z,15.25
2017-11-10T23:10:35.431Z,9.35
2017-11-10T23:13:08.176Z,6.12
2017-11-10T23:18:08.474Z,14.85
2017-11-10T23:20:36.155Z,9.45
2017-11-10T23:23:04.795Z,6.10
2017-11-10T23:25:32.364Z,23.77
2017-11-10T23:27:59.996Z,10.68
2017-11-10T23:30:27.647Z,13.00
2017-11-10T23:32:55.287Z,11.98
2017-11-10T23:35:24.222Z,11.68
2017-11-10T23:37:51.802Z,3.03
2017-11-10T23:40:19.546Z,7.62
2017-11-10T23:42:48.960Z,10.02
2017-11-10T23:45:16.614Z,12.37
2017-11-10T23:47:44.335Z,14.77
2017-11-10T23:50:12.453Z,13.27
2017-11-10T23:52:40.384Z,11.45
2017-11-10T23:55:08.003Z,14.27
2017-11-10T23:57:35.729Z,11.10
